createdAt,value
2023-01-13T00:03:09.440Z,85.33
2023-01-13T00:08:12.274Z,85.84
2023-01-13T00:13:15.163Z,86.16
2023-01-13T00:18:17.978Z,86.48
2023-01-13T00:23:20.763Z,86.56
2023-01-13T00:28:23.622Z,87.12
2023-01-13T00:33:26.481Z,87.69
2023-01-13T00:38:31.388Z,88.33
2023-01-13T00:43:35.806Z,88.73
2023-01-13T00:48:39.100Z,89.20
2023-01-13T00:53:44.467Z,89.90
2023-01-13T00:58:48.093Z,90.16
2023-01-13T01:03:52.479Z,90.47
2023-01-13T01:08:57.176Z,90.44
2023-01-13T01:14:02.931Z,90.84
2023-01-13T01:19:06.540Z,90.56
2023-01-13T01:24:09.537Z,90.87
2023-01-13T01:29:17.412Z,90.98
2023-01-13T01:34:20.255Z,91.08
2023-01-13T01:39:23.081Z,91.14
2023-01-13T01:44:50.713Z,91.33
2023-01-13T01:49:55.561Z,91.76
2023-01-13T01:55:20.792Z,91.85
2023-01-13T02:00:25.657Z,92.32
2023-01-13T02:05:28.528Z,93.33
2023-01-13T02:10:32.421Z,94.13
2023-01-13T02:15:52.967Z,95.26
2023-01-13T02:21:07.631Z,95.87
2023-01-13T02:26:25.822Z,96.36
2023-01-13T02:31:45.035Z,96.77
2023-01-13T02:37:09.599Z,97.05
2023-01-13T02:42:33.183Z,97.66
2023-01-13T02:47:39.175Z,98.81
2023-01-13T02:53:05.436Z,99.33
2023-01-13T02:58:12.314Z,99.70
2023-01-13T03:03:15.510Z,100.00
2023-01-13T03:08:33.584Z,99.96
2023-01-13T03:14:01.919Z,100.00
2023-01-13T03:19:17.475Z,100.00
2023-01-13T03:24:29.012Z,100.00
2023-01-13T03:29:54.993Z,100.00
2023-01-13T03:35:18.023Z,100.00
2023-01-13T03:40:35.704Z,100.00
2023-01-13T03:45:41.299Z,100.00
2023-01-13T03:50:49.857Z,100.00
2023-01-13T03:55:59.574Z,100.00
2023-01-13T04:01:35.802Z,100.00
2023-01-13T04:07:00.252Z,100.00
2023-01-13T04:12:13.480Z,100.00
2023-01-13T04:17:16.965Z,100.00
2023-01-13T04:22:19.765Z,100.00
2023-01-13T04:27:22.462Z,100.00
2023-01-13T04:32:25.133Z,100.00
2023-01-13T04:37:27.824Z,100.00
2023-01-13T04:42:30.727Z,100.00
2023-01-13T04:47:33.486Z,100.00
2023-01-13T04:52:36.310Z,100.00
2023-01-13T04:57:39.037Z,100.00
2023-01-13T05:02:41.783Z,100.00
2023-01-13T05:07:44.645Z,100.00
2023-01-13T05:13:06.183Z,100.00
2023-01-13T05:18:09.452Z,100.00
2023-01-13T05:23:31.371Z,100.00
2023-01-13T05:28:34.697Z,100.00
2023-01-13T05:33:37.493Z,100.00
2023-01-13T05:38:40.231Z,100.00
2023-01-13T05:43:43.048Z,100.00
2023-01-13T05:48:46.048Z,100.00
2023-01-13T05:53:48.760Z,100.00
2023-01-13T05:58:51.500Z,100.00
2023-01-13T06:03:54.214Z,100.00
2023-01-13T06:08:56.934Z,100.00
2023-01-13T06:13:59.652Z,100.00
2023-01-13T06:19:02.384Z,100.00
2023-01-13T06:24:06.397Z,100.00
2023-01-13T06:29:10.189Z,100.00
2023-01-13T06:34:14.683Z,100.00
2023-01-13T06:39:25.057Z,100.00
2023-01-13T06:44:31.039Z,100.00
2023-01-13T06:49:34.274Z,100.00
2023-01-13T06:54:37.060Z,100.00
2023-01-13T06:59:43.191Z,100.00
2023-01-13T07:04:46.946Z,100.00
2023-01-13T07:09:49.752Z,100.00
2023-01-13T07:15:10.970Z,100.00
2023-01-13T07:20:13.955Z,100.00
2023-01-13T07:25:16.892Z,100.00
2023-01-13T07:30:19.754Z,100.00
2023-01-13T07:35:23.529Z,100.00
2023-01-13T07:40:26.304Z,100.00
2023-01-13T07:45:29.190Z,100.00
2023-01-13T07:50:32.480Z,100.00
2023-01-13T07:55:35.256Z,100.00
2023-01-13T08:00:38.760Z,100.00
2023-01-13T08:05:41.579Z,100.00
2023-01-13T08:10:45.088Z,100.00
2023-01-13T08:15:50.444Z,100.00
2023-01-13T08:20:53.537Z,100.00
2023-01-13T08:26:01.391Z,100.00
2023-01-13T08:31:06.462Z,100.00
2023-01-13T08:36:11.091Z,100.00
2023-01-13T08:41:36.732Z,100.00
2023-01-13T08:46:41.252Z,100.00
2023-01-13T08:51:44.624Z,100.00
2023-01-13T08:56:48.017Z,100.00
2023-01-13T09:01:50.985Z,100.00
2023-01-13T09:06:55.607Z,100.00
2023-01-13T09:12:17.581Z,100.00
2023-01-13T09:17:20.449Z,100.00
2023-01-13T09:22:27.153Z,100.00
2023-01-13T09:27:29.972Z,99.94
2023-01-13T09:32:33.036Z,100.00
2023-01-13T09:37:41.242Z,99.95
2023-01-13T09:43:05.995Z,99.64
2023-01-13T09:48:08.984Z,99.30
2023-01-13T09:53:35.924Z,98.53
2023-01-13T09:58:49.029Z,98.14
2023-01-13T10:03:55.425Z,98.00
2023-01-13T10:08:58.474Z,98.04
2023-01-13T10:14:10.888Z,98.08
2023-01-13T10:19:22.887Z,97.60
2023-01-13T10:24:48.102Z,97.54
2023-01-13T10:29:55.738Z,97.97
2023-01-13T10:34:59.427Z,97.53
2023-01-13T10:40:05.147Z,97.93
2023-01-13T10:45:24.632Z,97.98
2023-01-13T10:50:29.524Z,97.44
2023-01-13T10:55:38.695Z,96.79
2023-01-13T11:00:42.353Z,96.62
2023-01-13T11:06:00.299Z,96.28
2023-01-13T11:11:03.330Z,97.24
2023-01-13T11:16:18.152Z,97.31
2023-01-13T11:21:24.890Z,97.25
2023-01-13T11:27:11.094Z,97.52
2023-01-13T11:32:23.332Z,96.57
2023-01-13T11:37:30.576Z,97.18
2023-01-13T11:42:53.913Z,96.16
2023-01-13T11:48:00.108Z,95.60
2023-01-13T11:53:41.900Z,95.24
2023-01-13T11:59:00.714Z,96.22
2023-01-13T12:04:47.936Z,96.26
2023-01-13T12:10:13.370Z,95.73
2023-01-13T12:15:25.904Z,95.55
2023-01-13T12:20:34.626Z,95.54
2023-01-13T12:25:45.674Z,95.80
2023-01-13T12:30:48.442Z,94.84
2023-01-13T12:36:15.445Z,95.46
2023-01-13T12:42:02.546Z,96.16
2023-01-13T12:47:33.153Z,96.50
2023-01-13T12:52:45.596Z,95.98
2023-01-13T12:57:57.227Z,95.76
2023-01-13T13:03:12.429Z,96.38
2023-01-13T13:08:42.863Z,95.93
2023-01-13T13:13:48.846Z,94.83
2023-01-13T13:19:22.632Z,95.27
2023-01-13T13:24:26.163Z,94.42
2023-01-13T13:29:35.257Z,94.87
2023-01-13T13:35:02.920Z,95.60
2023-01-13T13:40:29.272Z,95.02
2023-01-13T13:45:51.192Z,95.14
2023-01-13T13:51:02.838Z,95.58
2023-01-13T13:56:16.854Z,95.60
2023-01-13T14:01:32.963Z,95.20
2023-01-13T14:06:35.891Z,95.24
2023-01-13T14:11:41.317Z,94.85
2023-01-13T14:16:44.109Z,95.31
2023-01-13T14:21:48.469Z,95.91
2023-01-13T14:26:53.312Z,96.11
2023-01-13T14:31:56.439Z,96.25
2023-01-13T14:37:00.084Z,95.83
2023-01-13T14:42:03.205Z,96.35
2023-01-13T14:47:29.735Z,96.79
2023-01-13T14:52:35.802Z,97.46
2023-01-13T14:57:41.795Z,97.93
2023-01-13T15:02:53.881Z,98.51
2023-01-13T15:08:11.575Z,98.46
2023-01-13T15:13:39.795Z,99.11
2023-01-13T15:18:44.896Z,99.17
2023-01-13T15:23:47.745Z,99.33
2023-01-13T15:28:51.786Z,99.48
2023-01-13T15:33:54.850Z,99.86
2023-01-13T15:38:59.333Z,99.99
2023-01-13T15:44:20.584Z,99.80
2023-01-13T15:49:37.701Z,99.86
2023-01-13T15:54:40.959Z,99.96
2023-01-13T15:59:43.724Z,99.99
2023-01-13T16:04:46.638Z,100.00
2023-01-13T16:09:50.144Z,100.00
2023-01-13T16:14:52.983Z,100.00
2023-01-13T16:19:55.985Z,100.00
2023-01-13T16:24:58.947Z,100.00
2023-01-13T16:30:02.207Z,100.00
2023-01-13T16:35:05.786Z,100.00
2023-01-13T16:40:21.488Z,100.00
2023-01-13T16:45:25.243Z,100.00
2023-01-13T16:50:40.885Z,100.00
2023-01-13T16:55:44.471Z,100.00
2023-01-13T17:00:48.127Z,100.00
2023-01-13T17:05:50.962Z,100.00
2023-01-13T17:10:55.717Z,100.00
2023-01-13T17:15:58.799Z,100.00
2023-01-13T17:21:02.469Z,99.89
2023-01-13T17:26:05.790Z,99.53
2023-01-13T17:31:08.621Z,99.42
2023-01-13T17:36:11.427Z,99.42
2023-01-13T17:41:14.341Z,99.21
2023-01-13T17:46:19.227Z,99.46
2023-01-13T17:51:25.600Z,99.63
2023-01-13T17:56:28.416Z,99.88
2023-01-13T18:01:33.662Z,99.75
2023-01-13T18:06:37.905Z,99.76
2023-01-13T18:11:41.699Z,99.70
2023-01-13T18:16:44.627Z,99.75
2023-01-13T18:22:06.766Z,99.85
2023-01-13T18:27:19.383Z,99.73
2023-01-13T18:32:24.741Z,99.74
2023-01-13T18:37:27.925Z,99.76
2023-01-13T18:42:49.966Z,99.81
2023-01-13T18:47:54.728Z,99.77
2023-01-13T18:52:58.148Z,99.06
2023-01-13T18:58:01.068Z,99.33
2023-01-13T19:08:15.752Z,99.67
2023-01-13T19:13:18.965Z,99.54
2023-01-13T19:18:24.047Z,99.63
2023-01-13T19:23:26.823Z,99.87
2023-01-13T19:28:29.695Z,100.00
2023-01-13T19:33:33.909Z,100.00
2023-01-13T19:38:38.253Z,100.00
2023-01-13T19:43:59.781Z,100.00
2023-01-13T19:49:02.712Z,99.75
2023-01-13T19:54:05.586Z,99.28
2023-01-13T19:59:11.006Z,98.94
2023-01-13T20:04:19.392Z,99.49
2023-01-13T20:09:22.275Z,99.35
2023-01-13T20:14:26.192Z,99.94
2023-01-13T20:19:29.007Z,99.87
2023-01-13T20:24:31.882Z,100.00
2023-01-13T20:29:35.486Z,100.00
2023-01-13T20:34:38.530Z,100.00
2023-01-13T20:39:45.666Z,100.00
2023-01-13T20:44:48.391Z,100.00
2023-01-13T20:49:51.454Z,100.00
2023-01-13T20:54:54.236Z,100.00
2023-01-13T20:59:57.101Z,100.00
2023-01-13T21:05:00.002Z,100.00
2023-01-13T21:10:02.783Z,100.00
2023-01-13T21:15:18.424Z,100.00
2023-01-13T21:20:21.376Z,100.00
2023-01-13T21:25:24.243Z,100.00
2023-01-13T21:30:27.110Z,100.00
2023-01-13T21:35:29.937Z,100.00
2023-01-13T21:40:32.826Z,100.00
2023-01-13T21:45:57.760Z,100.00
2023-01-13T21:51:01.467Z,100.00
2023-01-13T21:56:06.800Z,100.00
2023-01-13T22:01:12.860Z,100.00
2023-01-13T22:06:15.783Z,100.00
2023-01-13T22:11:18.571Z,100.00
2023-01-13T22:16:21.370Z,100.00
2023-01-13T22:21:24.137Z,100.00
2023-01-13T22:26:27.505Z,100.00
2023-01-13T22:31:31.686Z,100.00
2023-01-13T22:36:34.476Z,100.00
2023-01-13T22:41:37.336Z,100.00
2023-01-13T22:46:40.068Z,100.00
2023-01-13T22:51:43.526Z,100.00
2023-01-13T22:56:46.396Z,100.00
2023-01-13T23:01:49.252Z,100.00
2023-01-13T23:06:52.082Z,100.00
2023-01-13T23:11:54.972Z,100.00
2023-01-13T23:16:57.780Z,100.00
2023-01-13T23:22:00.618Z,100.00
2023-01-13T23:27:03.529Z,100.00
2023-01-13T23:32:06.258Z,100.00
2023-01-13T23:37:09.088Z,100.00
2023-01-13T23:42:11.910Z,100.00
2023-01-13T23:47:14.729Z,100.00
2023-01-13T23:52:18.199Z,100.00
2023-01-13T23:57:21.067Z,99.94
